createdAt,value
2023-04-18T00:00:59.036Z,3.40
2023-04-18T00:02:04.180Z,3.00
2023-04-18T00:03:12.233Z,2.70
2023-04-18T00:04:16.475Z,4.40
2023-04-18T00:05:25.610Z,5.30
2023-04-18T00:06:32.532Z,3.80
2023-04-18T00:07:42.597Z,6.30
2023-04-18T00:08:50.346Z,5.10
2023-04-18T00:09:55.170Z,4.40
2023-04-18T00:11:01.819Z,6.20
2023-04-18T00:12:08.044Z,4.30
2023-04-18T00:13:16.492Z,4.20
2023-04-18T00:14:23.048Z,5.60
2023-04-18T00:15:26.325Z,3.80
2023-04-18T00:16:31.756Z,4.00
2023-04-18T00:17:38.596Z,3.70
2023-04-18T00:18:54.805Z,3.90
2023-04-18T00:20:00.204Z,3.10
2023-04-18T00:21:06.396Z,4.20
2023-04-18T00:22:14.559Z,3.90
2023-04-18T00:23:18.376Z,5.60
2023-04-18T00:24:20.991Z,3.70
2023-04-18T00:25:31.717Z,3.10
2023-04-18T00:27:42.483Z,5.10
2023-04-18T00:28:44.748Z,3.40
2023-04-18T00:29:47.444Z,6.00
2023-04-18T00:30:51.881Z,3.50
2023-04-18T00:31:54.491Z,2.40
2023-04-18T00:32:57.312Z,3.70
2023-04-18T00:33:59.992Z,5.30
2023-04-18T00:35:02.134Z,5.20
2023-04-18T00:36:06.186Z,5.00
2023-04-18T00:37:09.952Z,7.20
2023-04-18T00:38:12.512Z,5.10
2023-04-18T00:39:16.034Z,4.10
2023-04-18T00:40:18.539Z,4.60
2023-04-18T00:41:22.608Z,4.60
2023-04-18T00:42:24.905Z,4.20
2023-04-18T00:43:27.163Z,3.90
2023-04-18T00:44:30.749Z,3.30
2023-04-18T00:45:32.997Z,4.70
2023-04-18T00:46:35.313Z,4.20
2023-04-18T00:47:37.680Z,4.10
2023-04-18T00:48:40.432Z,5.40
2023-04-18T00:49:44.304Z,4.10
2023-04-18T00:50:46.766Z,5.30
2023-04-18T00:51:50.416Z,3.90
2023-04-18T00:52:54.306Z,5.10
2023-04-18T00:53:57.022Z,5.20
2023-04-18T00:54:59.688Z,4.50
2023-04-18T00:56:02.161Z,5.50
2023-04-18T00:57:06.635Z,3.90
2023-04-18T00:58:10.061Z,4.91
2023-04-18T00:59:12.961Z,5.70
2023-04-18T01:00:15.760Z,4.40
2023-04-18T01:01:18.073Z,4.60
2023-04-18T01:02:20.654Z,5.50
2023-04-18T01:03:23.215Z,5.70
2023-04-18T01:04:25.642Z,4.10
2023-04-18T01:05:28.175Z,6.00
2023-04-18T01:06:30.626Z,4.40
2023-04-18T01:07:36.492Z,6.40
2023-04-18T01:08:39.138Z,5.20
2023-04-18T01:09:41.275Z,6.40
2023-04-18T01:10:44.243Z,5.70
2023-04-18T01:11:46.568Z,5.73
2023-04-18T01:12:48.858Z,5.80
2023-04-18T01:14:05.540Z,6.10
2023-04-18T01:15:10.040Z,6.50
2023-04-18T01:16:13.080Z,7.60
2023-04-18T01:17:15.383Z,5.00
2023-04-18T01:18:19.317Z,5.10
2023-04-18T01:19:21.632Z,5.00
2023-04-18T01:20:24.992Z,6.60
2023-04-18T01:21:27.982Z,5.40
2023-04-18T01:22:31.660Z,5.50
2023-04-18T01:23:35.664Z,6.20
2023-04-18T01:24:38.002Z,7.50
2023-04-18T01:25:40.324Z,5.80
2023-04-18T01:26:44.611Z,4.50
2023-04-18T01:27:47.301Z,5.50
2023-04-18T01:28:49.611Z,5.10
2023-04-18T01:29:51.858Z,6.30
2023-04-18T01:30:54.030Z,5.50
2023-04-18T01:31:56.601Z,1.10
2023-04-18T01:34:09.469Z,7.50
2023-04-18T01:35:11.741Z,5.90
2023-04-18T01:36:14.183Z,5.40
2023-04-18T01:37:16.434Z,5.90
2023-04-18T01:38:18.601Z,4.60
2023-04-18T01:39:21.487Z,4.80
2023-04-18T01:40:24.497Z,5.27
2023-04-18T01:41:26.466Z,7.10
2023-04-18T01:42:29.519Z,5.30
2023-04-18T01:43:31.856Z,5.80
2023-04-18T01:44:34.296Z,5.70
2023-04-18T01:45:36.465Z,7.30
2023-04-18T01:46:39.668Z,7.10
2023-04-18T01:47:42.880Z,6.40
2023-04-18T01:48:48.042Z,7.90
2023-04-18T01:49:50.399Z,7.40
2023-04-18T01:50:53.204Z,6.70
2023-04-18T01:51:56.130Z,6.60
2023-04-18T01:52:59.437Z,7.00
2023-04-18T01:54:01.778Z,5.70
2023-04-18T01:55:04.553Z,6.30
2023-04-18T01:56:08.180Z,8.80
2023-04-18T01:57:10.335Z,6.80
2023-04-18T01:58:13.655Z,7.80
2023-04-18T01:59:15.789Z,6.20
2023-04-18T02:00:19.312Z,6.00
2023-04-18T02:01:21.416Z,9.10
2023-04-18T02:02:23.875Z,7.40
2023-04-18T02:03:27.902Z,5.60
2023-04-18T02:04:30.292Z,8.30
2023-04-18T02:05:32.590Z,6.70
2023-04-18T02:06:34.836Z,7.50
2023-04-18T02:07:37.501Z,4.90
2023-04-18T02:08:39.554Z,8.80
2023-04-18T02:09:41.833Z,8.10
2023-04-18T02:10:46.074Z,7.20
2023-04-18T02:11:48.836Z,8.00
2023-04-18T02:12:50.994Z,6.40
2023-04-18T02:13:53.131Z,6.10
2023-04-18T02:14:55.800Z,3.60
2023-04-18T02:15:58.055Z,6.00
2023-04-18T02:17:00.560Z,7.00
2023-04-18T02:18:03.281Z,6.60
2023-04-18T02:19:05.646Z,7.80
2023-04-18T02:20:08.812Z,8.60
2023-04-18T02:21:11.058Z,7.60
2023-04-18T02:22:13.205Z,6.70
2023-04-18T02:23:15.446Z,6.30
2023-04-18T02:24:17.886Z,8.90
2023-04-18T02:25:20.210Z,7.50
2023-04-18T02:26:23.443Z,6.60
2023-04-18T02:27:26.816Z,5.50
2023-04-18T02:28:30.826Z,7.10
2023-04-18T02:29:33.062Z,6.20
2023-04-18T02:30:35.715Z,6.80
2023-04-18T02:32:52.386Z,7.70
2023-04-18T02:33:56.614Z,6.00
2023-04-18T02:34:58.876Z,6.60
2023-04-18T02:36:01.158Z,7.30
2023-04-18T02:37:03.666Z,8.20
2023-04-18T02:38:07.335Z,6.60
2023-04-18T02:39:09.586Z,6.00
2023-04-18T02:40:12.865Z,7.10
2023-04-18T02:41:15.194Z,7.91
2023-04-18T02:42:17.916Z,6.50
2023-04-18T02:43:20.547Z,6.50
2023-04-18T02:44:23.207Z,7.90
2023-04-18T02:45:25.375Z,5.80
2023-04-18T02:46:27.729Z,6.00
2023-04-18T02:47:31.720Z,6.20
2023-04-18T02:48:34.549Z,5.40
2023-04-18T02:49:37.462Z,6.00
2023-04-18T02:50:39.602Z,7.90
2023-04-18T02:51:41.867Z,6.50
2023-04-18T02:52:44.262Z,6.00
2023-04-18T02:53:47.006Z,3.80
2023-04-18T02:54:49.382Z,5.20
2023-04-18T02:55:53.663Z,8.50
2023-04-18T02:56:57.070Z,10.10
2023-04-18T02:58:01.727Z,6.80
2023-04-18T02:59:22.618Z,6.50
2023-04-18T03:00:26.701Z,8.00
2023-04-18T03:01:47.171Z,7.10
2023-04-18T03:02:51.671Z,7.00
2023-04-18T03:03:55.739Z,6.20
2023-04-18T03:05:00.232Z,9.60
2023-04-18T03:06:02.856Z,7.09
2023-04-18T03:07:05.776Z,6.60
2023-04-18T03:08:09.982Z,7.30
2023-04-18T03:09:13.419Z,7.50
2023-04-18T03:10:17.570Z,6.10
2023-04-18T03:11:20.211Z,6.60
2023-04-18T03:12:23.101Z,8.00
2023-04-18T03:13:25.356Z,7.20
2023-04-18T03:14:29.834Z,7.40
2023-04-18T03:15:32.186Z,6.90
2023-04-18T03:16:34.405Z,5.80
2023-04-18T03:17:38.792Z,7.90
2023-04-18T03:18:41.113Z,6.90
2023-04-18T03:19:43.503Z,6.40
2023-04-18T03:20:48.136Z,8.90
2023-04-18T03:21:51.623Z,7.20
2023-04-18T03:22:53.901Z,8.30
2023-04-18T03:23:58.059Z,6.00
2023-04-18T03:25:00.201Z,6.90
2023-04-18T03:26:14.036Z,5.50
2023-04-18T03:27:17.107Z,6.00
2023-04-18T03:28:19.856Z,7.60
2023-04-18T03:29:22.098Z,6.50
2023-04-18T03:30:25.112Z,7.20
2023-04-18T03:31:29.675Z,7.27
2023-04-18T03:32:32.623Z,7.18
2023-04-18T03:33:34.928Z,6.36
2023-04-18T03:34:39.040Z,7.20
2023-04-18T03:35:42.947Z,7.30
2023-04-18T03:36:47.701Z,7.00
2023-04-18T03:37:49.331Z,7.09
2023-04-18T03:39:02.027Z,8.80
2023-04-18T03:40:05.322Z,4.70
2023-04-18T03:41:08.334Z,8.80
2023-04-18T03:42:12.426Z,7.60
2023-04-18T03:43:16.059Z,7.40
2023-04-18T03:44:18.316Z,9.50
2023-04-18T03:45:22.806Z,8.10
2023-04-18T03:46:25.525Z,10.73
2023-04-18T03:47:31.496Z,7.80
2023-04-18T03:48:34.292Z,8.20
2023-04-18T03:49:37.540Z,12.70
2023-04-18T03:50:40.054Z,9.36
2023-04-18T03:51:46.423Z,8.00
2023-04-18T03:52:49.468Z,7.60
2023-04-18T03:53:52.175Z,9.40
2023-04-18T03:54:54.481Z,9.20
2023-04-18T03:55:58.612Z,8.50
2023-04-18T03:57:02.689Z,9.90
2023-04-18T03:58:05.247Z,9.80
2023-04-18T03:59:07.604Z,9.40
2023-04-18T04:00:11.902Z,10.00
2023-04-18T04:01:22.088Z,8.60
2023-04-18T04:02:26.708Z,7.20
2023-04-18T04:03:29.243Z,10.09
2023-04-18T04:04:31.566Z,9.90
2023-04-18T04:05:34.261Z,9.50
2023-04-18T04:06:37.033Z,8.80
2023-04-18T04:07:40.344Z,8.30
2023-04-18T04:08:42.746Z,8.50
2023-04-18T04:09:45.894Z,8.64
2023-04-18T04:10:49.063Z,8.00
2023-04-18T04:11:52.168Z,9.30
2023-04-18T04:12:54.461Z,11.90
2023-04-18T04:13:57.018Z,9.10
2023-04-18T04:15:01.169Z,7.90
2023-04-18T04:16:05.149Z,9.64
2023-04-18T04:17:07.585Z,8.00
2023-04-18T04:18:11.413Z,8.70
2023-04-18T04:19:15.527Z,8.00
2023-04-18T04:20:22.224Z,9.30
2023-04-18T04:21:24.394Z,9.60
2023-04-18T04:22:28.568Z,9.60
2023-04-18T04:23:31.586Z,10.80
2023-04-18T04:24:33.755Z,7.70
2023-04-18T04:25:36.439Z,7.60
2023-04-18T04:26:40.546Z,9.70
2023-04-18T04:27:44.809Z,9.20
2023-04-18T04:28:47.658Z,8.45
2023-04-18T04:29:51.648Z,11.40
2023-04-18T04:30:54.694Z,13.80
2023-04-18T04:31:57.779Z,10.18
2023-04-18T04:33:02.069Z,10.90
2023-04-18T04:34:05.706Z,8.70
2023-04-18T04:35:08.573Z,10.00
2023-04-18T04:36:11.900Z,9.10
2023-04-18T04:37:15.314Z,9.45
2023-04-18T04:38:19.393Z,5.10
2023-04-18T04:39:22.907Z,10.27
2023-04-18T04:41:44.779Z,9.20
2023-04-18T04:42:47.377Z,8.40
2023-04-18T04:43:51.909Z,7.20
2023-04-18T04:44:56.063Z,10.70
2023-04-18T04:45:58.614Z,6.70
2023-04-18T04:47:00.770Z,9.20
2023-04-18T04:48:05.710Z,9.70
2023-04-18T04:49:07.866Z,6.40
2023-04-18T04:50:10.524Z,7.80
2023-04-18T04:51:13.325Z,8.90
2023-04-18T04:52:16.116Z,8.60
2023-04-18T04:53:18.662Z,8.27
2023-04-18T04:54:21.613Z,8.50
2023-04-18T04:55:23.925Z,10.20
2023-04-18T04:56:26.122Z,8.70
2023-04-18T04:57:28.957Z,8.60
2023-04-18T04:58:32.915Z,8.00
2023-04-18T04:59:42.911Z,10.20
2023-04-18T05:00:45.929Z,10.20
2023-04-18T05:01:48.881Z,10.50
2023-04-18T05:02:55.891Z,10.91
2023-04-18T05:03:59.055Z,7.80
2023-04-18T05:05:01.894Z,9.30
2023-04-18T05:06:04.674Z,8.90
2023-04-18T05:07:06.884Z,7.80
2023-04-18T05:08:09.370Z,9.80
2023-04-18T05:09:11.614Z,12.80
2023-04-18T05:10:13.996Z,9.00
2023-04-18T05:11:17.182Z,10.80
2023-04-18T05:12:19.308Z,8.30
2023-04-18T05:13:21.532Z,7.50
2023-04-18T05:14:23.579Z,6.60
2023-04-18T05:15:25.670Z,6.20
2023-04-18T05:16:27.889Z,9.40
2023-04-18T05:17:30.121Z,6.50
2023-04-18T05:18:35.025Z,5.80
2023-04-18T05:19:37.907Z,6.30
2023-04-18T05:20:40.371Z,3.80
2023-04-18T05:21:42.546Z,5.70
2023-04-18T05:22:45.749Z,5.80
2023-04-18T05:23:47.940Z,6.50
2023-04-18T05:24:50.013Z,5.70
2023-04-18T05:25:52.173Z,7.30
2023-04-18T05:26:54.983Z,6.30
2023-04-18T05:27:59.199Z,8.82
2023-04-18T05:29:01.554Z,8.20
2023-04-18T05:30:04.378Z,5.90
2023-04-18T05:31:06.577Z,7.40
2023-04-18T05:32:09.874Z,5.50
2023-04-18T05:33:12.084Z,6.60
2023-04-18T05:34:14.727Z,6.70
2023-04-18T05:35:17.172Z,6.64
2023-04-18T05:36:20.758Z,7.60
2023-04-18T05:37:22.864Z,7.70
2023-04-18T05:38:26.500Z,5.00
2023-04-18T05:39:28.650Z,4.90
2023-04-18T05:40:31.342Z,5.40
2023-04-18T05:41:33.491Z,3.70
2023-04-18T05:42:35.573Z,6.50
2023-04-18T05:43:37.753Z,6.10
2023-04-18T05:44:39.936Z,4.10
2023-04-18T05:45:42.123Z,7.00
2023-04-18T05:46:44.459Z,5.30
2023-04-18T05:47:46.762Z,6.70
2023-04-18T05:48:49.085Z,5.50
2023-04-18T05:49:51.262Z,8.30
2023-04-18T05:50:53.886Z,8.70
2023-04-18T05:51:56.047Z,4.60
2023-04-18T05:52:58.133Z,6.90
2023-04-18T05:54:00.758Z,5.40
2023-04-18T05:55:03.409Z,6.20
2023-04-18T05:56:06.493Z,4.70
2023-04-18T05:57:09.070Z,6.90
2023-04-18T05:58:12.285Z,4.70
2023-04-18T05:59:14.966Z,6.70
2023-04-18T06:00:17.662Z,5.80
2023-04-18T06:01:21.135Z,6.40
2023-04-18T06:02:23.351Z,5.30
2023-04-18T06:03:26.548Z,5.50
2023-04-18T06:04:30.118Z,5.90
2023-04-18T06:05:32.794Z,7.40
2023-04-18T06:06:35.417Z,5.00
2023-04-18T06:07:37.781Z,3.30
2023-04-18T06:08:40.580Z,4.60
2023-04-18T06:09:43.761Z,4.80
2023-04-18T06:10:46.034Z,6.50
2023-04-18T06:11:48.071Z,6.30
2023-04-18T06:12:50.040Z,5.78
2023-04-18T06:13:52.733Z,6.78
2023-04-18T06:14:55.690Z,5.10
2023-04-18T06:15:57.924Z,5.00
2023-04-18T06:17:00.622Z,6.50
2023-04-18T06:18:02.862Z,5.40
2023-04-18T06:19:05.233Z,5.40
2023-04-18T06:20:09.066Z,5.30
2023-04-18T06:21:12.104Z,6.80
2023-04-18T06:22:14.396Z,5.45
2023-04-18T06:23:16.913Z,6.60
2023-04-18T06:24:19.592Z,7.80
2023-04-18T06:25:22.146Z,7.10
2023-04-18T06:26:24.831Z,4.20
2023-04-18T06:27:31.543Z,5.80
2023-04-18T06:28:32.108Z,4.40
2023-04-18T06:29:35.523Z,5.30
2023-04-18T06:30:38.455Z,5.70
2023-04-18T06:31:40.612Z,4.40
2023-04-18T06:32:42.760Z,6.70
2023-04-18T06:33:45.173Z,4.80
2023-04-18T06:34:47.360Z,6.20
2023-04-18T06:35:49.997Z,6.50
2023-04-18T06:36:52.272Z,7.00
2023-04-18T06:37:54.903Z,5.90
2023-04-18T06:38:57.248Z,5.70
2023-04-18T06:40:00.055Z,6.50
2023-04-18T06:41:03.145Z,4.90
2023-04-18T06:42:05.837Z,5.40
2023-04-18T06:43:08.335Z,5.30
2023-04-18T06:44:10.989Z,5.90
2023-04-18T06:45:13.677Z,7.50
2023-04-18T06:46:16.585Z,5.00
2023-04-18T06:47:19.879Z,6.45
2023-04-18T06:48:22.293Z,5.50
2023-04-18T06:49:26.477Z,4.70
2023-04-18T06:50:29.526Z,6.00
2023-04-18T06:51:32.234Z,4.40
2023-04-18T06:52:34.381Z,5.90
2023-04-18T06:53:36.411Z,6.20
2023-04-18T06:54:38.610Z,4.67
2023-04-18T06:55:40.847Z,6.70
2023-04-18T06:56:43.083Z,6.60
2023-04-18T06:57:45.692Z,4.60
2023-04-18T06:58:48.872Z,6.60
2023-04-18T06:59:51.071Z,5.20
2023-04-18T07:00:53.268Z,6.00
2023-04-18T07:01:55.314Z,4.80
2023-04-18T07:02:58.176Z,5.50
2023-04-18T07:04:00.531Z,7.55
2023-04-18T07:05:02.883Z,7.20
2023-04-18T07:06:05.916Z,6.50
2023-04-18T07:07:09.045Z,6.00
2023-04-18T07:08:11.835Z,5.20
2023-04-18T07:09:14.006Z,5.00
2023-04-18T07:10:16.065Z,5.40
2023-04-18T07:11:18.276Z,6.50
2023-04-18T07:12:20.540Z,3.70
2023-04-18T07:13:23.070Z,5.70
2023-04-18T07:14:25.236Z,6.10
2023-04-18T07:15:27.411Z,5.20
2023-04-18T07:16:30.543Z,6.80
2023-04-18T07:17:33.068Z,6.20
2023-04-18T07:18:38.343Z,5.10
2023-04-18T07:19:40.493Z,5.10
2023-04-18T07:20:42.716Z,5.00
2023-04-18T07:21:45.272Z,4.60
2023-04-18T07:22:49.407Z,8.80
2023-04-18T07:23:52.177Z,3.30
2023-04-18T07:24:54.292Z,4.27
2023-04-18T07:25:56.393Z,4.00
2023-04-18T07:26:58.613Z,5.40
2023-04-18T07:28:00.911Z,5.00
2023-04-18T07:29:03.172Z,6.10
2023-04-18T07:30:06.783Z,4.90
2023-04-18T07:31:09.049Z,5.40
2023-04-18T07:32:12.362Z,5.00
2023-04-18T07:33:14.601Z,5.70
2023-04-18T07:34:17.158Z,3.40
2023-04-18T07:35:19.318Z,5.30
2023-04-18T07:36:22.013Z,4.70
2023-04-18T07:37:24.970Z,3.70
2023-04-18T07:38:27.629Z,5.18
2023-04-18T07:39:29.792Z,5.30
2023-04-18T07:40:32.384Z,4.20
2023-04-18T07:41:35.548Z,5.60
2023-04-18T07:42:37.680Z,5.00
2023-04-18T07:43:39.956Z,5.60
2023-04-18T07:44:42.819Z,5.30
2023-04-18T07:45:45.039Z,4.36
2023-04-18T07:46:47.643Z,5.40
2023-04-18T07:47:49.996Z,6.20
2023-04-18T07:48:53.121Z,4.50
2023-04-18T07:49:55.297Z,5.80
2023-04-18T07:50:57.920Z,6.00
2023-04-18T07:51:59.983Z,6.00
2023-04-18T07:53:01.972Z,4.40
2023-04-18T07:54:05.229Z,4.78
2023-04-18T07:55:07.980Z,6.00
2023-04-18T07:56:11.448Z,6.10
2023-04-18T07:57:14.084Z,5.50
2023-04-18T07:58:16.593Z,4.40
2023-04-18T07:59:19.176Z,3.00
2023-04-18T08:00:21.429Z,6.20
2023-04-18T08:01:23.481Z,5.60
2023-04-18T08:02:25.820Z,4.80
2023-04-18T08:03:28.430Z,3.50
2023-04-18T08:04:30.959Z,3.40
2023-04-18T08:05:33.373Z,4.80
2023-04-18T08:06:36.017Z,5.30
2023-04-18T08:07:38.744Z,5.50
2023-04-18T08:08:40.928Z,4.30
2023-04-18T08:09:43.106Z,4.40
2023-04-18T08:10:45.295Z,2.90
2023-04-18T08:11:47.454Z,4.30
2023-04-18T08:12:50.131Z,2.20
2023-04-18T08:13:52.298Z,4.80
2023-04-18T08:14:54.466Z,4.40
2023-04-18T08:15:56.566Z,3.30
2023-04-18T08:16:58.792Z,5.00
2023-04-18T08:18:01.289Z,4.00
2023-04-18T08:19:03.414Z,4.40
2023-04-18T08:20:06.616Z,4.80
2023-04-18T08:21:08.931Z,4.18
2023-04-18T08:22:11.293Z,3.30
2023-04-18T08:23:13.804Z,4.00
2023-04-18T08:24:16.384Z,5.30
2023-04-18T08:25:18.572Z,3.60
2023-04-18T08:26:21.748Z,4.40
2023-04-18T08:27:24.473Z,5.70
2023-04-18T08:28:26.709Z,4.80
2023-04-18T08:29:29.092Z,3.50
2023-04-18T08:30:31.293Z,4.70
2023-04-18T08:31:34.556Z,3.90
2023-04-18T08:32:37.332Z,5.70
2023-04-18T08:33:40.025Z,5.27
2023-04-18T08:34:42.133Z,5.50
2023-04-18T08:35:44.197Z,3.60
2023-04-18T08:36:46.349Z,4.20
2023-04-18T08:37:48.627Z,4.00
2023-04-18T08:38:50.705Z,4.40
2023-04-18T08:39:53.037Z,4.60
2023-04-18T08:40:55.176Z,3.80
2023-04-18T08:41:59.098Z,4.20
2023-04-18T08:43:03.231Z,3.70
2023-04-18T08:44:06.264Z,5.20
2023-04-18T08:45:09.368Z,3.60
2023-04-18T08:46:11.790Z,4.30
2023-04-18T08:47:14.244Z,4.20
2023-04-18T08:48:17.077Z,4.00
2023-04-18T08:49:19.905Z,4.45
2023-04-18T08:50:22.167Z,4.09
2023-04-18T08:51:24.383Z,5.80
2023-04-18T08:52:28.120Z,3.80
2023-04-18T08:53:32.927Z,3.10
2023-04-18T08:54:36.748Z,4.10
2023-04-18T08:55:39.143Z,6.60
2023-04-18T08:56:41.311Z,5.40
2023-04-18T08:57:44.639Z,5.50
2023-04-18T08:58:47.751Z,5.70
2023-04-18T08:59:51.110Z,4.20
2023-04-18T09:00:54.605Z,5.30
2023-04-18T09:01:57.212Z,2.50
2023-04-18T09:02:59.568Z,4.70
2023-04-18T09:04:01.846Z,5.00
2023-04-18T09:05:19.162Z,3.60
2023-04-18T09:06:21.221Z,2.60
2023-04-18T09:07:29.650Z,2.10
2023-04-18T09:08:31.880Z,2.80
2023-04-18T09:09:43.405Z,3.00
2023-04-18T09:10:46.835Z,2.00
2023-04-18T09:11:49.632Z,2.50
2023-04-18T09:12:51.786Z,3.60
2023-04-18T09:13:55.255Z,4.60
2023-04-18T09:15:09.541Z,1.90
2023-04-18T09:16:12.057Z,2.20
2023-04-18T09:17:16.428Z,2.60
2023-04-18T09:18:18.541Z,2.90
2023-04-18T09:19:20.792Z,2.80
2023-04-18T09:20:35.325Z,6.20
2023-04-18T09:21:41.353Z,3.50
2023-04-18T09:24:21.664Z,2.10
2023-04-18T09:26:41.534Z,4.00
2023-04-18T09:27:43.752Z,3.00
2023-04-18T09:28:49.845Z,3.00
2023-04-18T09:29:53.797Z,2.10
2023-04-18T09:32:09.699Z,3.40
2023-04-18T09:33:11.846Z,3.00
2023-04-18T09:34:21.540Z,2.50
2023-04-18T09:35:24.766Z,2.70
2023-04-18T09:36:27.649Z,2.80
2023-04-18T09:37:30.198Z,3.90
2023-04-18T09:38:41.109Z,2.80
2023-04-18T09:39:44.726Z,3.30
2023-04-18T09:40:51.354Z,2.50
2023-04-18T09:42:00.161Z,2.00
2023-04-18T09:43:18.011Z,2.00
2023-04-18T09:44:20.622Z,3.00
2023-04-18T09:45:23.943Z,4.20
2023-04-18T09:46:28.349Z,3.50
2023-04-18T09:47:32.276Z,4.20
2023-04-18T09:48:34.959Z,5.70
2023-04-18T09:49:37.159Z,5.20
2023-04-18T09:50:41.061Z,4.50
2023-04-18T09:51:45.457Z,4.70
2023-04-18T09:52:48.077Z,4.30
2023-04-18T09:53:50.945Z,4.20
2023-04-18T09:54:58.252Z,3.00
2023-04-18T09:56:02.583Z,3.30
2023-04-18T09:57:08.332Z,4.10
2023-04-18T09:58:12.027Z,3.60
2023-04-18T09:59:20.532Z,3.50
2023-04-18T10:00:28.305Z,3.20
2023-04-18T10:01:31.067Z,5.09
2023-04-18T10:02:41.265Z,4.50
2023-04-18T10:03:50.058Z,4.90
2023-04-18T10:04:55.766Z,2.40
2023-04-18T10:06:00.778Z,2.90
2023-04-18T10:07:03.119Z,2.60
2023-04-18T10:08:07.266Z,4.00
2023-04-18T10:09:09.474Z,4.00
2023-04-18T10:10:14.387Z,3.30
2023-04-18T10:11:18.661Z,3.30
2023-04-18T10:12:23.830Z,2.20
2023-04-18T10:13:28.342Z,2.60
2023-04-18T10:14:33.136Z,0.00
2023-04-18T10:15:41.210Z,2.20
2023-04-18T10:16:48.512Z,3.50
2023-04-18T10:19:28.821Z,3.10
2023-04-18T10:20:35.258Z,3.40
2023-04-18T10:21:46.284Z,2.40
2023-04-18T10:22:49.488Z,2.20
2023-04-18T10:23:51.732Z,2.80
2023-04-18T10:24:55.020Z,2.50
2023-04-18T10:25:58.716Z,2.50
2023-04-18T10:27:01.040Z,1.70
2023-04-18T10:28:04.821Z,3.70
2023-04-18T10:29:07.347Z,2.30
2023-04-18T10:30:11.048Z,3.90
2023-04-18T10:31:15.987Z,2.80
2023-04-18T10:32:20.916Z,2.30
2023-04-18T10:33:33.401Z,2.30
2023-04-18T10:34:37.610Z,1.90
2023-04-18T10:35:44.478Z,2.40
2023-04-18T10:37:06.183Z,3.00
2023-04-18T10:38:11.958Z,2.30
2023-04-18T10:39:22.474Z,2.70
2023-04-18T10:40:35.309Z,2.20
2023-04-18T10:41:42.061Z,2.50
2023-04-18T10:42:53.597Z,4.20
2023-04-18T10:44:16.273Z,2.50
2023-04-18T10:45:20.251Z,3.20
2023-04-18T10:46:31.825Z,2.60
2023-04-18T10:47:27.238Z,3.00
2023-04-18T10:48:30.136Z,4.60
2023-04-18T10:49:35.183Z,4.40
2023-04-18T10:51:51.953Z,2.70
2023-04-18T10:52:55.187Z,2.20
2023-04-18T10:54:00.293Z,4.30
2023-04-18T10:55:12.335Z,2.50
2023-04-18T10:56:15.830Z,2.00
2023-04-18T10:57:18.086Z,2.30
2023-04-18T10:58:21.139Z,1.90
2023-04-18T10:59:23.843Z,2.40
2023-04-18T11:00:27.321Z,1.00
2023-04-18T11:01:32.630Z,2.40
2023-04-18T11:02:35.545Z,2.30
2023-04-18T11:03:38.528Z,4.90
2023-04-18T11:04:41.796Z,2.18
2023-04-18T11:05:44.013Z,1.80
2023-04-18T11:06:51.939Z,2.00
2023-04-18T11:07:54.614Z,2.10
2023-04-18T11:09:13.988Z,2.91
2023-04-18T11:10:19.161Z,3.60
2023-04-18T11:11:21.862Z,4.40
2023-04-18T11:12:24.208Z,2.64
2023-04-18T11:13:27.476Z,2.20
2023-04-18T11:14:45.108Z,2.30
2023-04-18T11:15:47.306Z,3.00
2023-04-18T11:16:49.939Z,2.70
2023-04-18T11:18:00.021Z,1.60
2023-04-18T11:20:32.227Z,1.90
2023-04-18T11:21:34.466Z,2.00
2023-04-18T11:22:45.282Z,2.00
2023-04-18T11:23:47.473Z,2.50
2023-04-18T11:24:50.913Z,3.30
2023-04-18T11:25:54.443Z,1.80
2023-04-18T11:26:56.731Z,2.00
2023-04-18T11:28:00.512Z,2.20
2023-04-18T11:29:02.861Z,3.10
2023-04-18T11:30:07.461Z,3.20
2023-04-18T11:31:10.734Z,3.70
2023-04-18T11:32:12.909Z,1.80
2023-04-18T11:33:15.734Z,1.90
2023-04-18T11:34:18.443Z,2.30
2023-04-18T11:35:20.729Z,3.20
2023-04-18T11:36:23.328Z,1.80
2023-04-18T11:37:25.514Z,3.20
2023-04-18T11:38:29.355Z,1.60
2023-04-18T11:39:34.467Z,1.50
2023-04-18T11:40:37.833Z,2.50
2023-04-18T11:41:40.861Z,2.00
2023-04-18T11:42:43.583Z,2.70
2023-04-18T11:43:46.029Z,2.18
2023-04-18T11:44:48.185Z,2.60
2023-04-18T11:45:58.080Z,2.80
2023-04-18T11:47:00.770Z,1.80
2023-04-18T11:48:04.000Z,1.70
2023-04-18T11:49:06.289Z,2.00
2023-04-18T11:50:11.323Z,3.55
2023-04-18T11:52:43.550Z,2.60
2023-04-18T11:53:46.313Z,1.50
2023-04-18T11:54:48.998Z,3.10
2023-04-18T11:55:55.112Z,2.40
2023-04-18T11:56:57.764Z,1.30
2023-04-18T11:58:01.188Z,2.70
2023-04-18T11:59:09.457Z,2.00
2023-04-18T12:00:13.259Z,1.30
2023-04-18T12:02:49.845Z,2.40
2023-04-18T12:05:14.615Z,3.00
2023-04-18T12:06:17.614Z,2.50
2023-04-18T12:07:43.808Z,2.30
2023-04-18T12:08:46.059Z,1.90
2023-04-18T12:09:51.598Z,0.00
2023-04-18T12:10:54.451Z,1.60
2023-04-18T12:11:59.677Z,1.10
2023-04-18T12:13:06.952Z,1.40
2023-04-18T12:15:29.858Z,1.30
2023-04-18T12:16:33.264Z,1.00
2023-04-18T12:17:36.681Z,1.40
2023-04-18T12:18:38.861Z,1.00
2023-04-18T12:19:44.422Z,1.20
2023-04-18T12:20:51.638Z,1.60
2023-04-18T12:21:59.478Z,1.40
2023-04-18T12:23:01.870Z,2.00
2023-04-18T12:24:14.740Z,1.70
2023-04-18T12:25:25.255Z,2.50
2023-04-18T12:26:28.690Z,1.30
2023-04-18T12:27:48.334Z,1.00
2023-04-18T12:28:51.458Z,2.70
2023-04-18T12:29:53.688Z,3.00
2023-04-18T12:30:56.332Z,1.30
2023-04-18T12:31:58.622Z,1.60
2023-04-18T12:33:03.863Z,2.00
2023-04-18T12:34:06.648Z,1.80
2023-04-18T12:35:09.018Z,1.30
2023-04-18T12:36:11.870Z,1.00
2023-04-18T12:37:14.040Z,1.00
2023-04-18T12:38:21.571Z,1.00
2023-04-18T12:39:24.697Z,1.20
2023-04-18T12:40:28.485Z,1.40
2023-04-18T12:41:30.711Z,1.00
2023-04-18T12:42:32.912Z,1.00
2023-04-18T12:43:35.488Z,1.20
2023-04-18T12:44:37.846Z,0.40
2023-04-18T12:45:40.306Z,1.60
2023-04-18T12:46:43.677Z,0.80
2023-04-18T12:47:48.268Z,1.40
2023-04-18T12:48:50.812Z,2.00
2023-04-18T12:49:53.084Z,1.00
2023-04-18T12:50:55.377Z,1.40
2023-04-18T12:51:58.110Z,1.40
2023-04-18T12:53:01.456Z,1.70
2023-04-18T12:54:03.882Z,1.20
2023-04-18T12:55:06.954Z,1.20
2023-04-18T12:56:09.239Z,1.00
2023-04-18T12:57:12.105Z,0.80
2023-04-18T12:58:14.770Z,1.00
2023-04-18T12:59:18.167Z,1.00
2023-04-18T13:00:22.473Z,2.00
2023-04-18T13:01:25.455Z,1.90
2023-04-18T13:02:28.008Z,0.80
2023-04-18T13:03:30.691Z,1.00
2023-04-18T13:04:33.780Z,0.50
2023-04-18T13:05:37.351Z,2.30
2023-04-18T13:06:39.893Z,2.10
2023-04-18T13:07:43.179Z,1.00
2023-04-18T13:08:46.346Z,2.30
2023-04-18T13:09:48.665Z,1.00
2023-04-18T13:10:50.954Z,1.80
2023-04-18T13:11:53.558Z,1.90
2023-04-18T13:12:56.103Z,2.20
2023-04-18T13:13:58.138Z,1.90
2023-04-18T13:15:00.205Z,2.50
2023-04-18T13:16:03.350Z,3.30
2023-04-18T13:17:05.693Z,4.50
2023-04-18T13:18:08.883Z,3.70
2023-04-18T13:19:11.628Z,4.60
2023-04-18T13:20:15.317Z,3.00
2023-04-18T13:21:17.471Z,2.70
2023-04-18T13:22:19.963Z,3.70
2023-04-18T13:23:22.163Z,3.00
2023-04-18T13:24:24.338Z,1.90
2023-04-18T13:25:26.905Z,2.00
2023-04-18T13:26:29.373Z,3.30
2023-04-18T13:27:31.944Z,3.70
2023-04-18T13:28:34.491Z,4.00
2023-04-18T13:30:47.774Z,4.40
2023-04-18T13:31:50.109Z,3.00
2023-04-18T13:32:52.470Z,3.00
2023-04-18T13:33:54.941Z,3.00
2023-04-18T13:34:57.000Z,1.90
2023-04-18T13:35:59.163Z,1.70
2023-04-18T13:37:01.817Z,2.70
2023-04-18T13:38:03.890Z,2.50
2023-04-18T13:39:06.133Z,1.50
2023-04-18T13:40:09.310Z,3.82
2023-04-18T13:41:13.454Z,3.40
2023-04-18T13:42:16.471Z,3.50
2023-04-18T13:43:19.078Z,3.80
2023-04-18T13:44:21.293Z,5.60
2023-04-18T13:45:23.440Z,2.70
2023-04-18T13:46:26.300Z,4.30
2023-04-18T13:47:29.437Z,3.50
2023-04-18T13:48:31.621Z,3.30
2023-04-18T13:49:35.030Z,2.80
2023-04-18T13:50:37.253Z,3.70
2023-04-18T13:51:39.443Z,2.10
2023-04-18T13:52:41.582Z,2.00
2023-04-18T13:53:43.845Z,3.90
2023-04-18T13:54:46.578Z,2.50
2023-04-18T13:55:49.139Z,3.60
2023-04-18T13:56:54.222Z,2.60
2023-04-18T13:57:57.027Z,2.00
2023-04-18T13:58:59.171Z,1.80
2023-04-18T14:00:01.435Z,2.20
2023-04-18T14:01:06.492Z,1.90
2023-04-18T14:02:11.573Z,2.30
2023-04-18T14:03:15.009Z,3.90
2023-04-18T14:04:17.516Z,3.10
2023-04-18T14:05:20.347Z,3.00
2023-04-18T14:06:22.744Z,3.09
2023-04-18T14:07:24.904Z,2.20
2023-04-18T14:08:27.581Z,2.10
2023-04-18T14:09:29.755Z,2.50
2023-04-18T14:10:33.152Z,1.80
2023-04-18T14:11:35.330Z,4.20
2023-04-18T14:12:38.510Z,2.20
2023-04-18T14:13:40.600Z,1.50
2023-04-18T14:14:42.794Z,2.60
2023-04-18T14:15:44.887Z,1.50
2023-04-18T14:16:47.511Z,2.70
2023-04-18T14:17:50.172Z,1.50
2023-04-18T14:18:52.725Z,3.20
2023-04-18T14:19:54.896Z,2.40
2023-04-18T14:20:57.212Z,2.90
2023-04-18T14:21:59.466Z,1.50
2023-04-18T14:23:02.126Z,2.00
2023-04-18T14:24:05.584Z,2.91
2023-04-18T14:25:09.106Z,2.70
2023-04-18T14:26:12.036Z,2.40